sensor_id;sensor_type;location;lat;lon;timestamp;P1;durP1;ratioP1;P2;durP2;ratioP2
12267;SDS011;6196;48.398;11.736;2023-06-10T00:02:05;7.07;;;6.47;;
12267;SDS011;6196;48.398;11.736;2023-06-10T00:04:33;7.17;;;6.47;;
12267;SDS011;6196;48.398;11.736;2023-06-10T00:07:03;7.37;;;6.67;;
12267;SDS011;6196;48.398;11.736;2023-06-10T00:09:37;7.83;;;7.03;;
12267;SDS011;6196;48.398;11.736;2023-06-10T00:12:05;7.13;;;6.53;;
12267;SDS011;6196;48.398;11.736;2023-06-10T00:14:35;7.50;;;6.90;;
12267;SDS011;6196;48.398;11.736;2023-06-10T00:17:05;8.40;;;7.00;;
12267;SDS011;6196;48.398;11.736;2023-06-10T00:19:37;7.37;;;6.73;;
12267;SDS011;6196;48.398;11.736;2023-06-10T00:22:08;7.60;;;6.40;;
12267;SDS011;6196;48.398;11.736;2023-06-10T00:24:37;7.70;;;6.97;;
12267;SDS011;6196;48.398;11.736;2023-06-10T00:27:05;7.13;;;6.30;;
12267;SDS011;6196;48.398;11.736;2023-06-10T00:29:33;7.43;;;6.80;;
12267;SDS011;6196;48.398;11.736;2023-06-10T00:32:00;7.43;;;6.83;;
12267;SDS011;6196;48.398;11.736;2023-06-10T00:34:27;8.00;;;6.80;;
12267;SDS011;6196;48.398;11.736;2023-06-10T00:36:54;8.00;;;7.23;;
12267;SDS011;6196;48.398;11.736;2023-06-10T00:39:21;7.33;;;6.63;;
12267;SDS011;6196;48.398;11.736;2023-06-10T00:41:48;7.60;;;7.00;;
12267;SDS011;6196;48.398;11.736;2023-06-10T00:44:16;7.20;;;6.50;;
12267;SDS011;6196;48.398;11.736;2023-06-10T00:46:43;7.80;;;7.10;;
12267;SDS011;6196;48.398;11.736;2023-06-10T00:49:10;6.80;;;6.13;;
12267;SDS011;6196;48.398;11.736;2023-06-10T00:51:37;7.90;;;7.10;;
12267;SDS011;6196;48.398;11.736;2023-06-10T00:54:05;7.63;;;7.00;;
12267;SDS011;6196;48.398;11.736;2023-06-10T00:56:34;7.60;;;6.90;;
12267;SDS011;6196;48.398;11.736;2023-06-10T00:59:01;8.20;;;7.40;;
12267;SDS011;6196;48.398;11.736;2023-06-10T01:01:28;7.50;;;6.80;;
12267;SDS011;6196;48.398;11.736;2023-06-10T01:03:56;8.17;;;7.10;;
12267;SDS011;6196;48.398;11.736;2023-06-10T01:12:19;7.83;;;6.87;;
12267;SDS011;6196;48.398;11.736;2023-06-10T01:14:58;7.20;;;6.60;;
12267;SDS011;6196;48.398;11.736;2023-06-10T01:17:28;7.40;;;6.67;;
12267;SDS011;6196;48.398;11.736;2023-06-10T01:19:57;7.37;;;6.67;;
12267;SDS011;6196;48.398;11.736;2023-06-10T01:22:25;7.20;;;6.57;;
12267;SDS011;6196;48.398;11.736;2023-06-10T01:24:58;7.87;;;7.17;;
12267;SDS011;6196;48.398;11.736;2023-06-10T01:27:30;7.73;;;7.13;;
12267;SDS011;6196;48.398;11.736;2023-06-10T01:30:08;7.47;;;6.77;;
12267;SDS011;6196;48.398;11.736;2023-06-10T01:32:45;7.23;;;6.53;;
12267;SDS011;6196;48.398;11.736;2023-06-10T01:35:17;8.73;;;7.43;;
12267;SDS011;6196;48.398;11.736;2023-06-10T01:37:47;8.27;;;7.47;;
12267;SDS011;6196;48.398;11.736;2023-06-10T01:40:16;7.67;;;6.97;;
12267;SDS011;6196;48.398;11.736;2023-06-10T01:42:43;8.27;;;7.47;;
12267;SDS011;6196;48.398;11.736;2023-06-10T01:45:10;8.00;;;7.30;;
12267;SDS011;6196;48.398;11.736;2023-06-10T01:47:37;7.87;;;6.90;;
12267;SDS011;6196;48.398;11.736;2023-06-10T01:50:04;8.03;;;7.23;;
12267;SDS011;6196;48.398;11.736;2023-06-10T01:52:32;8.17;;;7.47;;
12267;SDS011;6196;48.398;11.736;2023-06-10T01:54:59;8.17;;;7.37;;
12267;SDS011;6196;48.398;11.736;2023-06-10T01:57:26;8.60;;;7.80;;
12267;SDS011;6196;48.398;11.736;2023-06-10T01:59:53;8.47;;;7.77;;
12267;SDS011;6196;48.398;11.736;2023-06-10T02:02:20;7.87;;;7.23;;
12267;SDS011;6196;48.398;11.736;2023-06-10T02:04:48;9.23;;;8.10;;
12267;SDS011;6196;48.398;11.736;2023-06-10T02:07:15;8.57;;;7.77;;
12267;SDS011;6196;48.398;11.736;2023-06-10T02:09:42;8.77;;;7.97;;
12267;SDS011;6196;48.398;11.736;2023-06-10T02:12:09;8.57;;;7.77;;
12267;SDS011;6196;48.398;11.736;2023-06-10T02:14:36;9.27;;;8.37;;
12267;SDS011;6196;48.398;11.736;2023-06-10T02:17:03;8.37;;;7.57;;
12267;SDS011;6196;48.398;11.736;2023-06-10T02:19:30;8.73;;;7.93;;
12267;SDS011;6196;48.398;11.736;2023-06-10T02:21:57;8.30;;;7.50;;
12267;SDS011;6196;48.398;11.736;2023-06-10T02:24:24;9.83;;;8.90;;
12267;SDS011;6196;48.398;11.736;2023-06-10T02:26:51;9.43;;;8.57;;
12267;SDS011;6196;48.398;11.736;2023-06-10T02:29:19;8.93;;;7.77;;
12267;SDS011;6196;48.398;11.736;2023-06-10T02:31:46;8.53;;;7.83;;
12267;SDS011;6196;48.398;11.736;2023-06-10T02:34:13;8.27;;;7.57;;
12267;SDS011;6196;48.398;11.736;2023-06-10T02:36:40;8.50;;;7.70;;
12267;SDS011;6196;48.398;11.736;2023-06-10T02:39:07;8.50;;;7.70;;
12267;SDS011;6196;48.398;11.736;2023-06-10T02:41:35;8.07;;;7.37;;
12267;SDS011;6196;48.398;11.736;2023-06-10T02:44:02;8.53;;;7.80;;
12267;SDS011;6196;48.398;11.736;2023-06-10T02:46:29;8.27;;;7.47;;
12267;SDS011;6196;48.398;11.736;2023-06-10T02:48:56;8.37;;;7.67;;
12267;SDS011;6196;48.398;11.736;2023-06-10T02:51:23;8.20;;;7.40;;
12267;SDS011;6196;48.398;11.736;2023-06-10T02:53:50;8.33;;;7.53;;
12267;SDS011;6196;48.398;11.736;2023-06-10T02:56:17;9.10;;;8.30;;
12267;SDS011;6196;48.398;11.736;2023-06-10T02:58:45;9.27;;;8.47;;
12267;SDS011;6196;48.398;11.736;2023-06-10T03:01:12;9.73;;;8.83;;
12267;SDS011;6196;48.398;11.736;2023-06-10T03:03:39;8.80;;;7.97;;
12267;SDS011;6196;48.398;11.736;2023-06-10T03:06:12;8.80;;;8.00;;
12267;SDS011;6196;48.398;11.736;2023-06-10T03:08:40;8.87;;;8.17;;
12267;SDS011;6196;48.398;11.736;2023-06-10T03:11:07;8.50;;;7.70;;
12267;SDS011;6196;48.398;11.736;2023-06-10T03:13:34;8.63;;;7.87;;
12267;SDS011;6196;48.398;11.736;2023-06-10T03:16:01;9.30;;;8.50;;
12267;SDS011;6196;48.398;11.736;2023-06-10T03:18:29;9.20;;;8.30;;
12267;SDS011;6196;48.398;11.736;2023-06-10T03:20:56;8.73;;;7.93;;
12267;SDS011;6196;48.398;11.736;2023-06-10T03:23:23;8.43;;;7.73;;
12267;SDS011;6196;48.398;11.736;2023-06-10T03:25:50;9.03;;;8.23;;
12267;SDS011;6196;48.398;11.736;2023-06-10T03:28:17;8.37;;;7.67;;
12267;SDS011;6196;48.398;11.736;2023-06-10T03:30:44;9.67;;;8.77;;
12267;SDS011;6196;48.398;11.736;2023-06-10T03:33:11;9.20;;;8.30;;
12267;SDS011;6196;48.398;11.736;2023-06-10T03:35:38;9.30;;;8.40;;
12267;SDS011;6196;48.398;11.736;2023-06-10T03:38:05;9.23;;;8.40;;
12267;SDS011;6196;48.398;11.736;2023-06-10T03:40:32;8.90;;;8.10;;
12267;SDS011;6196;48.398;11.736;2023-06-10T03:43:00;9.73;;;8.77;;
12267;SDS011;6196;48.398;11.736;2023-06-10T03:45:27;9.50;;;8.70;;
12267;SDS011;6196;48.398;11.736;2023-06-10T03:47:55;9.13;;;8.33;;
12267;SDS011;6196;48.398;11.736;2023-06-10T03:50:23;8.73;;;8.00;;
12267;SDS011;6196;48.398;11.736;2023-06-10T03:52:50;8.77;;;7.90;;
12267;SDS011;6196;48.398;11.736;2023-06-10T03:55:17;8.37;;;7.57;;
12267;SDS011;6196;48.398;11.736;2023-06-10T03:57:48;8.27;;;7.57;;
12267;SDS011;6196;48.398;11.736;2023-06-10T04:00:16;8.67;;;7.87;;
12267;SDS011;6196;48.398;11.736;2023-06-10T04:02:44;8.40;;;7.60;;
12267;SDS011;6196;48.398;11.736;2023-06-10T04:05:16;9.60;;;8.73;;
12267;SDS011;6196;48.398;11.736;2023-06-10T04:07:44;8.57;;;7.77;;
12267;SDS011;6196;48.398;11.736;2023-06-10T04:10:11;7.83;;;7.20;;
12267;SDS011;6196;48.398;11.736;2023-06-10T04:12:38;8.00;;;7.30;;
12267;SDS011;6196;48.398;11.736;2023-06-10T04:15:05;8.77;;;7.87;;
12267;SDS011;6196;48.398;11.736;2023-06-10T04:17:34;8.30;;;7.50;;
12267;SDS011;6196;48.398;11.736;2023-06-10T04:20:01;8.37;;;7.47;;
12267;SDS011;6196;48.398;11.736;2023-06-10T04:22:30;8.93;;;8.10;;
12267;SDS011;6196;48.398;11.736;2023-06-10T04:24:57;8.37;;;7.67;;
12267;SDS011;6196;48.398;11.736;2023-06-10T04:27:25;9.37;;;8.53;;
12267;SDS011;6196;48.398;11.736;2023-06-10T04:29:52;9.00;;;8.20;;
12267;SDS011;6196;48.398;11.736;2023-06-10T04:32:19;8.73;;;7.83;;
12267;SDS011;6196;48.398;11.736;2023-06-10T04:34:46;9.03;;;8.23;;
12267;SDS011;6196;48.398;11.736;2023-06-10T04:37:13;8.97;;;8.10;;
12267;SDS011;6196;48.398;11.736;2023-06-10T04:39:40;8.67;;;7.87;;
12267;SDS011;6196;48.398;11.736;2023-06-10T04:42:07;8.17;;;7.47;;
12267;SDS011;6196;48.398;11.736;2023-06-10T04:44:34;8.40;;;7.70;;
12267;SDS011;6196;48.398;11.736;2023-06-10T04:47:01;8.97;;;8.17;;
12267;SDS011;6196;48.398;11.736;2023-06-10T04:49:28;8.20;;;7.40;;
12267;SDS011;6196;48.398;11.736;2023-06-10T04:51:56;8.60;;;7.80;;
12267;SDS011;6196;48.398;11.736;2023-06-10T04:54:22;7.77;;;7.07;;
12267;SDS011;6196;48.398;11.736;2023-06-10T04:56:49;8.30;;;7.50;;
12267;SDS011;6196;48.398;11.736;2023-06-10T04:59:16;9.10;;;8.20;;
12267;SDS011;6196;48.398;11.736;2023-06-10T05:01:43;8.30;;;7.50;;
12267;SDS011;6196;48.398;11.736;2023-06-10T05:04:10;8.63;;;7.83;;
12267;SDS011;6196;48.398;11.736;2023-06-10T05:06:37;8.50;;;7.70;;
12267;SDS011;6196;48.398;11.736;2023-06-10T05:09:04;8.63;;;7.83;;
12267;SDS011;6196;48.398;11.736;2023-06-10T05:11:31;8.40;;;7.60;;
12267;SDS011;6196;48.398;11.736;2023-06-10T05:13:58;8.73;;;7.70;;
12267;SDS011;6196;48.398;11.736;2023-06-10T05:16:25;7.97;;;7.17;;
12267;SDS011;6196;48.398;11.736;2023-06-10T05:18:52;8.30;;;7.50;;
12267;SDS011;6196;48.398;11.736;2023-06-10T05:21:19;7.60;;;6.90;;
12267;SDS011;6196;48.398;11.736;2023-06-10T05:23:46;8.30;;;7.57;;
12267;SDS011;6196;48.398;11.736;2023-06-10T05:26:13;7.47;;;6.77;;
12267;SDS011;6196;48.398;11.736;2023-06-10T05:28:40;7.80;;;7.10;;
12267;SDS011;6196;48.398;11.736;2023-06-10T05:31:09;8.90;;;7.97;;
12267;SDS011;6196;48.398;11.736;2023-06-10T05:33:36;7.33;;;6.73;;
12267;SDS011;6196;48.398;11.736;2023-06-10T05:36:03;8.83;;;7.17;;
12267;SDS011;6196;48.398;11.736;2023-06-10T05:38:30;7.70;;;7.00;;
12267;SDS011;6196;48.398;11.736;2023-06-10T05:40:57;7.67;;;7.00;;
12267;SDS011;6196;48.398;11.736;2023-06-10T05:43:25;8.03;;;7.33;;
12267;SDS011;6196;48.398;11.736;2023-06-10T05:45:52;8.10;;;7.40;;
12267;SDS011;6196;48.398;11.736;2023-06-10T05:48:19;8.20;;;7.37;;
12267;SDS011;6196;48.398;11.736;2023-06-10T05:50:46;8.37;;;7.63;;
12267;SDS011;6196;48.398;11.736;2023-06-10T05:53:14;8.17;;;7.47;;
12267;SDS011;6196;48.398;11.736;2023-06-10T05:55:42;7.97;;;7.23;;
12267;SDS011;6196;48.398;11.736;2023-06-10T05:58:13;8.47;;;7.67;;
12267;SDS011;6196;48.398;11.736;2023-06-10T06:00:40;8.50;;;7.80;;
12267;SDS011;6196;48.398;11.736;2023-06-10T06:03:08;8.63;;;7.87;;
12267;SDS011;6196;48.398;11.736;2023-06-10T06:05:36;9.43;;;8.13;;
12267;SDS011;6196;48.398;11.736;2023-06-10T06:08:04;8.53;;;7.77;;
12267;SDS011;6196;48.398;11.736;2023-06-10T06:10:32;8.70;;;7.80;;
12267;SDS011;6196;48.398;11.736;2023-06-10T06:13:00;8.63;;;7.80;;
12267;SDS011;6196;48.398;11.736;2023-06-10T06:15:27;8.37;;;7.67;;
12267;SDS011;6196;48.398;11.736;2023-06-10T06:17:54;7.80;;;7.10;;
12267;SDS011;6196;48.398;11.736;2023-06-10T06:20:23;9.00;;;8.10;;
12267;SDS011;6196;48.398;11.736;2023-06-10T06:22:50;9.27;;;8.37;;
12267;SDS011;6196;48.398;11.736;2023-06-10T06:25:17;7.90;;;7.20;;
12267;SDS011;6196;48.398;11.736;2023-06-10T06:27:44;7.73;;;7.03;;
12267;SDS011;6196;48.398;11.736;2023-06-10T06:30:11;8.47;;;7.67;;
12267;SDS011;6196;48.398;11.736;2023-06-10T06:32:38;8.40;;;7.60;;
12267;SDS011;6196;48.398;11.736;2023-06-10T06:35:05;8.03;;;7.17;;
12267;SDS011;6196;48.398;11.736;2023-06-10T06:37:35;7.83;;;7.13;;
12267;SDS011;6196;48.398;11.736;2023-06-10T06:40:02;8.03;;;7.33;;
12267;SDS011;6196;48.398;11.736;2023-06-10T06:42:30;7.00;;;6.33;;
12267;SDS011;6196;48.398;11.736;2023-06-10T06:44:57;7.97;;;7.27;;
12267;SDS011;6196;48.398;11.736;2023-06-10T06:47:24;8.57;;;7.63;;
12267;SDS011;6196;48.398;11.736;2023-06-10T06:49:51;8.73;;;7.27;;
12267;SDS011;6196;48.398;11.736;2023-06-10T06:52:18;8.07;;;6.87;;
12267;SDS011;6196;48.398;11.736;2023-06-10T06:54:45;7.43;;;6.77;;
12267;SDS011;6196;48.398;11.736;2023-06-10T06:57:12;7.13;;;6.53;;
12267;SDS011;6196;48.398;11.736;2023-06-10T06:59:39;7.40;;;6.70;;
12267;SDS011;6196;48.398;11.736;2023-06-10T07:02:06;8.83;;;7.00;;
12267;SDS011;6196;48.398;11.736;2023-06-10T07:04:33;6.77;;;6.17;;
12267;SDS011;6196;48.398;11.736;2023-06-10T07:07:00;7.67;;;7.07;;
12267;SDS011;6196;48.398;11.736;2023-06-10T07:09:27;7.50;;;6.73;;
12267;SDS011;6196;48.398;11.736;2023-06-10T07:11:54;7.70;;;7.10;;
12267;SDS011;6196;48.398;11.736;2023-06-10T07:14:21;7.23;;;6.57;;
12267;SDS011;6196;48.398;11.736;2023-06-10T07:16:48;7.27;;;6.57;;
12267;SDS011;6196;48.398;11.736;2023-06-10T07:19:15;6.87;;;6.20;;
12267;SDS011;6196;48.398;11.736;2023-06-10T07:21:42;7.47;;;6.73;;
12267;SDS011;6196;48.398;11.736;2023-06-10T07:24:09;7.67;;;6.90;;
12267;SDS011;6196;48.398;11.736;2023-06-10T07:26:36;7.30;;;6.60;;
12267;SDS011;6196;48.398;11.736;2023-06-10T07:29:03;8.20;;;7.40;;
12267;SDS011;6196;48.398;11.736;2023-06-10T07:31:30;7.87;;;7.17;;
12267;SDS011;6196;48.398;11.736;2023-06-10T07:33:57;8.73;;;7.93;;
12267;SDS011;6196;48.398;11.736;2023-06-10T07:36:24;8.50;;;7.80;;
12267;SDS011;6196;48.398;11.736;2023-06-10T07:38:54;8.23;;;7.43;;
12267;SDS011;6196;48.398;11.736;2023-06-10T07:41:22;8.47;;;7.67;;
12267;SDS011;6196;48.398;11.736;2023-06-10T07:43:53;8.47;;;7.67;;
12267;SDS011;6196;48.398;11.736;2023-06-10T07:46:21;7.30;;;6.60;;
12267;SDS011;6196;48.398;11.736;2023-06-10T07:48:49;7.50;;;6.80;;
12267;SDS011;6196;48.398;11.736;2023-06-10T07:51:17;8.70;;;7.90;;
12267;SDS011;6196;48.398;11.736;2023-06-10T07:53:44;8.17;;;7.37;;
12267;SDS011;6196;48.398;11.736;2023-06-10T07:56:11;9.30;;;8.47;;
12267;SDS011;6196;48.398;11.736;2023-06-10T07:58:38;7.77;;;7.07;;
12267;SDS011;6196;48.398;11.736;2023-06-10T08:01:05;8.03;;;7.33;;
12267;SDS011;6196;48.398;11.736;2023-06-10T08:03:32;8.03;;;7.27;;
12267;SDS011;6196;48.398;11.736;2023-06-10T08:06:00;7.77;;;7.10;;
12267;SDS011;6196;48.398;11.736;2023-06-10T08:08:27;7.60;;;6.80;;
12267;SDS011;6196;48.398;11.736;2023-06-10T08:10:54;7.83;;;7.07;;
12267;SDS011;6196;48.398;11.736;2023-06-10T08:13:21;8.27;;;7.47;;
12267;SDS011;6196;48.398;11.736;2023-06-10T08:15:48;7.80;;;7.00;;
12267;SDS011;6196;48.398;11.736;2023-06-10T08:18:17;7.30;;;6.67;;
12267;SDS011;6196;48.398;11.736;2023-06-10T08:20:43;7.83;;;7.03;;
12267;SDS011;6196;48.398;11.736;2023-06-10T08:23:10;6.97;;;5.87;;
12267;SDS011;6196;48.398;11.736;2023-06-10T08:25:37;5.73;;;5.27;;
12267;SDS011;6196;48.398;11.736;2023-06-10T08:28:04;6.10;;;5.50;;
12267;SDS011;6196;48.398;11.736;2023-06-10T08:30:31;6.10;;;5.60;;
12267;SDS011;6196;48.398;11.736;2023-06-10T08:32:58;5.07;;;4.67;;
12267;SDS011;6196;48.398;11.736;2023-06-10T08:35:26;6.50;;;5.90;;
12267;SDS011;6196;48.398;11.736;2023-06-10T08:37:53;6.00;;;5.40;;
12267;SDS011;6196;48.398;11.736;2023-06-10T08:40:20;6.83;;;6.20;;
12267;SDS011;6196;48.398;11.736;2023-06-10T08:45:37;7.47;;;6.87;;
12267;SDS011;6196;48.398;11.736;2023-06-10T08:48:04;7.37;;;6.77;;
12267;SDS011;6196;48.398;11.736;2023-06-10T08:50:36;6.10;;;5.60;;
12267;SDS011;6196;48.398;11.736;2023-06-10T08:53:04;6.10;;;5.60;;
12267;SDS011;6196;48.398;11.736;2023-06-10T08:55:33;5.93;;;5.33;;
12267;SDS011;6196;48.398;11.736;2023-06-10T08:58:09;7.57;;;6.87;;
12267;SDS011;6196;48.398;11.736;2023-06-10T09:00:37;6.97;;;5.83;;
12267;SDS011;6196;48.398;11.736;2023-06-10T09:03:04;6.80;;;6.30;;
12267;SDS011;6196;48.398;11.736;2023-06-10T09:05:35;7.03;;;6.43;;
12267;SDS011;6196;48.398;11.736;2023-06-10T09:08:07;6.90;;;6.30;;
12267;SDS011;6196;48.398;11.736;2023-06-10T09:10:35;7.00;;;6.50;;
12267;SDS011;6196;48.398;11.736;2023-06-10T09:13:02;6.63;;;6.03;;
12267;SDS011;6196;48.398;11.736;2023-06-10T09:15:29;6.03;;;5.33;;
12267;SDS011;6196;48.398;11.736;2023-06-10T09:17:56;6.20;;;5.63;;
12267;SDS011;6196;48.398;11.736;2023-06-10T09:20:24;5.77;;;5.37;;
12267;SDS011;6196;48.398;11.736;2023-06-10T09:22:51;6.87;;;6.27;;
12267;SDS011;6196;48.398;11.736;2023-06-10T09:25:18;6.40;;;5.80;;
12267;SDS011;6196;48.398;11.736;2023-06-10T09:32:58;5.63;;;5.23;;
12267;SDS011;6196;48.398;11.736;2023-06-10T09:35:28;5.23;;;4.83;;
12267;SDS011;6196;48.398;11.736;2023-06-10T09:37:57;5.40;;;5.00;;
12267;SDS011;6196;48.398;11.736;2023-06-10T09:40:26;5.83;;;5.33;;
12267;SDS011;6196;48.398;11.736;2023-06-10T09:42:57;6.07;;;5.40;;
12267;SDS011;6196;48.398;11.736;2023-06-10T09:45:29;7.97;;;4.73;;
12267;SDS011;6196;48.398;11.736;2023-06-10T09:48:00;5.40;;;5.00;;
12267;SDS011;6196;48.398;11.736;2023-06-10T09:50:28;4.87;;;4.47;;
12267;SDS011;6196;48.398;11.736;2023-06-10T09:53:00;4.97;;;4.57;;
12267;SDS011;6196;48.398;11.736;2023-06-10T09:55:32;4.43;;;4.07;;
12267;SDS011;6196;48.398;11.736;2023-06-10T09:58:00;4.70;;;4.30;;
12267;SDS011;6196;48.398;11.736;2023-06-10T10:00:27;5.23;;;4.73;;
12267;SDS011;6196;48.398;11.736;2023-06-10T10:02:54;4.70;;;4.30;;
12267;SDS011;6196;48.398;11.736;2023-06-10T10:05:22;5.17;;;4.77;;
12267;SDS011;6196;48.398;11.736;2023-06-10T10:07:50;5.30;;;4.80;;
12267;SDS011;6196;48.398;11.736;2023-06-10T10:10:18;4.83;;;4.47;;
12267;SDS011;6196;48.398;11.736;2023-06-10T10:12:47;5.27;;;4.87;;
12267;SDS011;6196;48.398;11.736;2023-06-10T10:15:17;7.13;;;4.90;;
12267;SDS011;6196;48.398;11.736;2023-06-10T10:20:41;5.03;;;4.67;;
12267;SDS011;6196;48.398;11.736;2023-06-10T10:23:19;5.27;;;4.77;;
12267;SDS011;6196;48.398;11.736;2023-06-10T10:25:53;5.90;;;5.10;;
12267;SDS011;6196;48.398;11.736;2023-06-10T10:28:21;6.17;;;4.70;;
12267;SDS011;6196;48.398;11.736;2023-06-10T10:30:54;5.27;;;4.87;;
12267;SDS011;6196;48.398;11.736;2023-06-10T10:33:31;5.20;;;4.70;;
12267;SDS011;6196;48.398;11.736;2023-06-10T10:36:09;5.47;;;5.07;;
12267;SDS011;6196;48.398;11.736;2023-06-10T10:38:36;5.60;;;4.50;;
12267;SDS011;6196;48.398;11.736;2023-06-10T10:41:04;4.70;;;4.20;;
12267;SDS011;6196;48.398;11.736;2023-06-10T10:43:31;4.83;;;4.37;;
12267;SDS011;6196;48.398;11.736;2023-06-10T10:46:03;4.53;;;4.13;;
12267;SDS011;6196;48.398;11.736;2023-06-10T10:48:39;4.10;;;3.80;;
12267;SDS011;6196;48.398;11.736;2023-06-10T10:51:10;3.90;;;3.60;;
12267;SDS011;6196;48.398;11.736;2023-06-10T10:53:37;3.57;;;3.30;;
12267;SDS011;6196;48.398;11.736;2023-06-10T10:56:06;4.27;;;3.90;;
12267;SDS011;6196;48.398;11.736;2023-06-10T10:59:01;4.70;;;4.30;;
12267;SDS011;6196;48.398;11.736;2023-06-10T11:01:40;4.83;;;4.40;;
12267;SDS011;6196;48.398;11.736;2023-06-10T11:04:13;5.50;;;5.00;;
12267;SDS011;6196;48.398;11.736;2023-06-10T11:06:51;5.53;;;5.03;;
12267;SDS011;6196;48.398;11.736;2023-06-10T11:09:26;5.30;;;4.77;;
12267;SDS011;6196;48.398;11.736;2023-06-10T11:11:58;5.50;;;5.10;;
12267;SDS011;6196;48.398;11.736;2023-06-10T11:14:26;5.10;;;4.70;;
12267;SDS011;6196;48.398;11.736;2023-06-10T11:16:58;5.50;;;5.00;;
12267;SDS011;6196;48.398;11.736;2023-06-10T11:19:32;5.30;;;4.80;;
12267;SDS011;6196;48.398;11.736;2023-06-10T11:22:02;4.90;;;4.50;;
12267;SDS011;6196;48.398;11.736;2023-06-10T11:24:34;5.13;;;4.70;;
12267;SDS011;6196;48.398;11.736;2023-06-10T11:29:58;4.63;;;4.33;;
12267;SDS011;6196;48.398;11.736;2023-06-10T11:32:50;4.47;;;4.17;;
12267;SDS011;6196;48.398;11.736;2023-06-10T11:35:19;4.93;;;4.53;;
12267;SDS011;6196;48.398;11.736;2023-06-10T11:37:47;5.20;;;4.70;;
12267;SDS011;6196;48.398;11.736;2023-06-10T11:40:15;5.47;;;5.00;;
12267;SDS011;6196;48.398;11.736;2023-06-10T11:42:42;4.43;;;4.13;;
12267;SDS011;6196;48.398;11.736;2023-06-10T11:45:09;5.50;;;5.00;;
12267;SDS011;6196;48.398;11.736;2023-06-10T11:47:54;5.17;;;4.77;;
12267;SDS011;6196;48.398;11.736;2023-06-10T11:50:30;5.33;;;4.93;;
12267;SDS011;6196;48.398;11.736;2023-06-10T11:53:00;5.03;;;4.63;;
12267;SDS011;6196;48.398;11.736;2023-06-10T11:55:43;5.43;;;4.93;;
12267;SDS011;6196;48.398;11.736;2023-06-10T11:58:18;4.78;;;4.38;;
12267;SDS011;6196;48.398;11.736;2023-06-10T12:00:47;5.97;;;4.55;;
12267;SDS011;6196;48.398;11.736;2023-06-10T12:03:17;5.50;;;4.30;;
12267;SDS011;6196;48.398;11.736;2023-06-10T12:08:32;4.35;;;4.05;;
12267;SDS011;6196;48.398;11.736;2023-06-10T12:11:02;4.78;;;4.38;;
12267;SDS011;6196;48.398;11.736;2023-06-10T12:13:29;4.47;;;4.15;;
12267;SDS011;6196;48.398;11.736;2023-06-10T12:16:05;4.22;;;3.90;;
12267;SDS011;6196;48.398;11.736;2023-06-10T12:18:34;4.25;;;3.85;;
12267;SDS011;6196;48.398;11.736;2023-06-10T12:21:01;4.50;;;4.10;;
12267;SDS011;6196;48.398;11.736;2023-06-10T12:23:29;4.75;;;4.25;;
12267;SDS011;6196;48.398;11.736;2023-06-10T12:25:57;4.65;;;4.25;;
12267;SDS011;6196;48.398;11.736;2023-06-10T12:28:26;6.95;;;4.88;;
12267;SDS011;6196;48.398;11.736;2023-06-10T12:31:06;4.57;;;4.18;;
12267;SDS011;6196;48.398;11.736;2023-06-10T12:33:34;5.10;;;4.60;;
12267;SDS011;6196;48.398;11.736;2023-06-10T12:36:01;5.13;;;4.73;;
12267;SDS011;6196;48.398;11.736;2023-06-10T12:38:28;4.93;;;4.53;;
12267;SDS011;6196;48.398;11.736;2023-06-10T12:41:02;5.10;;;4.70;;
12267;SDS011;6196;48.398;11.736;2023-06-10T12:43:30;5.20;;;4.80;;
12267;SDS011;6196;48.398;11.736;2023-06-10T12:46:08;5.57;;;5.17;;
12267;SDS011;6196;48.398;11.736;2023-06-10T12:48:36;5.87;;;5.27;;
12267;SDS011;6196;48.398;11.736;2023-06-10T12:51:15;5.30;;;4.80;;
12267;SDS011;6196;48.398;11.736;2023-06-10T12:53:42;5.13;;;4.73;;
12267;SDS011;6196;48.398;11.736;2023-06-10T12:56:09;5.37;;;4.87;;
12267;SDS011;6196;48.398;11.736;2023-06-10T12:58:36;5.77;;;5.27;;
12267;SDS011;6196;48.398;11.736;2023-06-10T13:01:03;5.00;;;4.60;;
12267;SDS011;6196;48.398;11.736;2023-06-10T13:03:30;5.83;;;5.30;;
12267;SDS011;6196;48.398;11.736;2023-06-10T13:05:57;5.10;;;4.70;;
12267;SDS011;6196;48.398;11.736;2023-06-10T13:08:24;5.13;;;4.73;;
12267;SDS011;6196;48.398;11.736;2023-06-10T13:10:51;5.40;;;4.87;;
12267;SDS011;6196;48.398;11.736;2023-06-10T13:13:18;6.07;;;4.83;;
12267;SDS011;6196;48.398;11.736;2023-06-10T13:15:45;4.95;;;4.55;;
12267;SDS011;6196;48.398;11.736;2023-06-10T13:18:12;5.88;;;4.93;;
12267;SDS011;6196;48.398;11.736;2023-06-10T13:20:39;4.60;;;4.20;;
12267;SDS011;6196;48.398;11.736;2023-06-10T13:23:06;4.30;;;3.90;;
12267;SDS011;6196;48.398;11.736;2023-06-10T13:25:33;4.38;;;3.97;;
12267;SDS011;6196;48.398;11.736;2023-06-10T13:28:00;4.68;;;4.28;;
12267;SDS011;6196;48.398;11.736;2023-06-10T13:30:27;3.53;;;3.33;;
12267;SDS011;6196;48.398;11.736;2023-06-10T13:32:54;3.40;;;3.10;;
12267;SDS011;6196;48.398;11.736;2023-06-10T13:35:21;2.78;;;2.58;;
12267;SDS011;6196;48.398;11.736;2023-06-10T13:37:48;3.35;;;3.15;;
12267;SDS011;6196;48.398;11.736;2023-06-10T13:40:15;3.60;;;3.30;;
12267;SDS011;6196;48.398;11.736;2023-06-10T13:42:42;3.73;;;3.30;;
12267;SDS011;6196;48.398;11.736;2023-06-10T13:45:10;3.33;;;3.03;;
12267;SDS011;6196;48.398;11.736;2023-06-10T13:47:37;3.70;;;3.40;;
12267;SDS011;6196;48.398;11.736;2023-06-10T13:50:05;4.07;;;3.40;;
12267;SDS011;6196;48.398;11.736;2023-06-10T13:52:33;3.87;;;3.57;;
12267;SDS011;6196;48.398;11.736;2023-06-10T13:55:00;3.63;;;3.23;;
12267;SDS011;6196;48.398;11.736;2023-06-10T13:57:27;3.87;;;3.47;;
12267;SDS011;6196;48.398;11.736;2023-06-10T13:59:54;3.70;;;3.10;;
12267;SDS011;6196;48.398;11.736;2023-06-10T14:02:22;3.22;;;3.03;;
12267;SDS011;6196;48.398;11.736;2023-06-10T14:04:49;3.35;;;3.15;;
12267;SDS011;6196;48.398;11.736;2023-06-10T14:07:16;3.70;;;3.40;;
12267;SDS011;6196;48.398;11.736;2023-06-10T14:09:43;3.50;;;3.20;;
12267;SDS011;6196;48.398;11.736;2023-06-10T14:12:10;3.50;;;3.20;;
12267;SDS011;6196;48.398;11.736;2023-06-10T14:14:37;3.30;;;3.10;;
12267;SDS011;6196;48.398;11.736;2023-06-10T14:17:04;4.25;;;3.95;;
12267;SDS011;6196;48.398;11.736;2023-06-10T14:19:31;4.20;;;3.80;;
12267;SDS011;6196;48.398;11.736;2023-06-10T14:21:58;4.07;;;3.78;;
12267;SDS011;6196;48.398;11.736;2023-06-10T14:24:25;4.10;;;3.80;;
12267;SDS011;6196;48.398;11.736;2023-06-10T14:26:52;3.88;;;3.58;;
12267;SDS011;6196;48.398;11.736;2023-06-10T14:29:19;4.35;;;3.95;;
12267;SDS011;6196;48.398;11.736;2023-06-10T14:31:47;4.30;;;4.00;;
12267;SDS011;6196;48.398;11.736;2023-06-10T14:34:14;5.38;;;4.22;;
12267;SDS011;6196;48.398;11.736;2023-06-10T14:36:41;4.22;;;3.92;;
12267;SDS011;6196;48.398;11.736;2023-06-10T14:39:07;4.40;;;4.00;;
12267;SDS011;6196;48.398;11.736;2023-06-10T14:41:34;4.00;;;3.70;;
12267;SDS011;6196;48.398;11.736;2023-06-10T14:44:01;4.78;;;4.38;;
12267;SDS011;6196;48.398;11.736;2023-06-10T14:46:29;4.15;;;3.85;;
12267;SDS011;6196;48.398;11.736;2023-06-10T14:48:56;3.28;;;3.08;;
12267;SDS011;6196;48.398;11.736;2023-06-10T14:51:22;3.58;;;3.28;;
12267;SDS011;6196;48.398;11.736;2023-06-10T14:53:49;4.75;;;4.35;;
12267;SDS011;6196;48.398;11.736;2023-06-10T14:56:16;3.78;;;3.47;;
12267;SDS011;6196;48.398;11.736;2023-06-10T14:58:43;4.35;;;4.05;;
12267;SDS011;6196;48.398;11.736;2023-06-10T15:01:10;4.95;;;4.28;;
12267;SDS011;6196;48.398;11.736;2023-06-10T15:03:37;4.95;;;4.25;;
12267;SDS011;6196;48.398;11.736;2023-06-10T15:06:04;4.70;;;4.30;;
12267;SDS011;6196;48.398;11.736;2023-06-10T15:08:31;4.70;;;4.30;;
12267;SDS011;6196;48.398;11.736;2023-06-10T15:10:58;4.07;;;3.78;;
12267;SDS011;6196;48.398;11.736;2023-06-10T15:13:27;4.50;;;4.10;;
12267;SDS011;6196;48.398;11.736;2023-06-10T15:15:54;4.63;;;4.30;;
12267;SDS011;6196;48.398;11.736;2023-06-10T15:18:22;3.92;;;3.63;;